createdAt,value
2022-07-30T00:00:27.777Z,22.47
2022-07-30T00:01:27.830Z,22.46
2022-07-30T00:02:27.773Z,22.47
2022-07-30T00:03:27.838Z,22.47
2022-07-30T00:04:27.751Z,22.46
2022-07-30T00:05:27.724Z,22.47
2022-07-30T00:06:27.715Z,22.47
2022-07-30T00:07:27.706Z,22.47
2022-07-30T00:08:27.694Z,22.47
2022-07-30T00:09:27.702Z,22.46
2022-07-30T00:10:27.671Z,22.46
2022-07-30T00:11:28.275Z,22.47
2022-07-30T00:12:27.651Z,22.47
2022-07-30T00:13:27.640Z,22.47
2022-07-30T00:14:27.636Z,22.46
2022-07-30T00:15:27.635Z,22.47
2022-07-30T00:16:27.854Z,22.47
2022-07-30T00:17:27.597Z,22.46
2022-07-30T00:18:27.594Z,22.47
2022-07-30T00:19:27.576Z,22.46
2022-07-30T00:20:28.033Z,22.46
2022-07-30T00:21:35.914Z,22.46
2022-07-30T00:22:28.542Z,22.47
2022-07-30T00:23:27.534Z,22.47
2022-07-30T00:24:27.522Z,22.46
2022-07-30T00:25:27.513Z,22.46
2022-07-30T00:26:27.520Z,22.46
2022-07-30T00:27:27.492Z,22.47
2022-07-30T00:28:27.479Z,22.46
2022-07-30T00:29:27.477Z,22.46
2022-07-30T00:30:27.540Z,22.46
2022-07-30T00:31:27.463Z,22.47
2022-07-30T00:32:27.451Z,22.46
2022-07-30T00:33:27.428Z,22.46
2022-07-30T00:34:27.415Z,22.46
2022-07-30T00:35:27.693Z,22.46
2022-07-30T00:36:27.392Z,22.46
2022-07-30T00:37:27.400Z,22.46
2022-07-30T00:38:27.371Z,22.46
2022-07-30T00:39:27.362Z,22.47
2022-07-30T00:40:27.350Z,22.47
2022-07-30T00:41:27.341Z,22.47
2022-07-30T00:42:27.345Z,22.45
2022-07-30T00:43:27.318Z,22.46
2022-07-30T00:44:27.304Z,22.45
2022-07-30T00:45:27.354Z,22.47
2022-07-30T00:46:27.284Z,22.46
2022-07-30T00:47:27.289Z,22.47
2022-07-30T00:48:27.266Z,22.46
2022-07-30T00:49:27.369Z,22.46
2022-07-30T00:50:27.241Z,22.46
2022-07-30T00:51:27.235Z,22.46
2022-07-30T00:52:27.237Z,22.46
2022-07-30T00:53:27.210Z,22.46
2022-07-30T00:54:27.201Z,22.46
2022-07-30T00:55:27.187Z,22.47
2022-07-30T00:56:27.176Z,22.46
2022-07-30T00:57:27.182Z,22.46
2022-07-30T00:58:27.155Z,22.47
2022-07-30T00:59:27.142Z,22.47
2022-07-30T01:00:27.134Z,22.46
2022-07-30T01:01:27.254Z,22.46
2022-07-30T01:02:27.216Z,22.47
2022-07-30T01:03:27.116Z,22.46
2022-07-30T01:04:27.124Z,22.46
2022-07-30T01:05:27.079Z,22.46
2022-07-30T01:06:27.073Z,22.46
2022-07-30T01:07:27.245Z,22.45
2022-07-30T01:08:27.063Z,22.46
2022-07-30T01:09:27.082Z,22.45
2022-07-30T01:10:27.026Z,22.45
2022-07-30T01:11:27.015Z,22.46
2022-07-30T01:12:27.006Z,22.45
2022-07-30T01:13:27.011Z,22.46
2022-07-30T01:14:26.996Z,22.46
2022-07-30T01:15:27.091Z,22.46
2022-07-30T01:16:27.003Z,22.45
2022-07-30T01:17:26.950Z,22.45
2022-07-30T01:18:26.938Z,22.45
2022-07-30T01:19:26.943Z,22.45
2022-07-30T01:20:26.939Z,22.46
2022-07-30T01:21:26.906Z,22.45
2022-07-30T01:22:28.989Z,22.45
2022-07-30T01:23:26.884Z,22.45
2022-07-30T01:24:26.881Z,22.45
2022-07-30T01:25:26.879Z,22.46
2022-07-30T01:26:26.859Z,22.46
2022-07-30T01:27:26.841Z,22.45
2022-07-30T01:28:26.831Z,22.45
2022-07-30T01:29:26.820Z,22.45
2022-07-30T01:30:26.825Z,22.45
2022-07-30T01:31:26.866Z,22.45
2022-07-30T01:32:26.790Z,22.45
2022-07-30T01:33:26.777Z,22.45
2022-07-30T01:34:26.768Z,22.45
2022-07-30T01:35:26.771Z,22.43
2022-07-30T01:36:26.745Z,22.45
2022-07-30T01:37:26.736Z,22.45
2022-07-30T01:38:26.724Z,22.45
2022-07-30T01:39:26.717Z,22.45
2022-07-30T01:40:26.717Z,22.45
2022-07-30T01:41:26.712Z,22.45
2022-07-30T01:42:26.682Z,22.45
2022-07-30T01:43:26.669Z,22.45
2022-07-30T01:44:26.660Z,22.45
2022-07-30T01:45:26.724Z,22.45
2022-07-30T01:46:26.809Z,22.43
2022-07-30T01:47:26.641Z,22.45
2022-07-30T01:48:26.619Z,22.45
2022-07-30T01:49:26.603Z,22.46
2022-07-30T01:50:26.595Z,22.45
2022-07-30T01:51:26.583Z,22.45
2022-07-30T01:52:27.587Z,22.43
2022-07-30T01:53:26.565Z,22.45
2022-07-30T01:54:26.549Z,22.45
2022-07-30T01:55:26.538Z,22.45
2022-07-30T01:56:26.533Z,22.45
2022-07-30T01:57:26.534Z,22.45
2022-07-30T01:58:26.509Z,22.45
2022-07-30T01:59:26.495Z,22.43
2022-07-30T02:00:26.493Z,22.45
2022-07-30T02:01:26.575Z,22.43
2022-07-30T02:02:26.483Z,22.45
2022-07-30T02:03:26.523Z,22.45
2022-07-30T02:04:26.443Z,22.45
2022-07-30T02:05:26.436Z,22.45
2022-07-30T02:06:26.427Z,22.45
2022-07-30T02:07:26.411Z,22.45
2022-07-30T02:08:26.418Z,22.45
2022-07-30T02:09:26.390Z,22.43
2022-07-30T02:10:26.377Z,22.45
2022-07-30T02:11:26.368Z,22.45
2022-07-30T02:12:26.382Z,22.45
2022-07-30T02:13:26.360Z,22.45
2022-07-30T02:14:26.337Z,22.45
2022-07-30T02:15:26.324Z,22.45
2022-07-30T02:16:26.376Z,22.45
2022-07-30T02:17:30.084Z,22.46
2022-07-30T02:18:26.360Z,22.45
2022-07-30T02:19:26.293Z,22.43
2022-07-30T02:20:28.367Z,22.43
2022-07-30T02:21:26.259Z,22.45
2022-07-30T02:22:27.247Z,22.45
2022-07-30T02:23:26.237Z,22.45
2022-07-30T02:24:26.243Z,22.45
2022-07-30T02:25:26.231Z,22.43
2022-07-30T02:26:26.314Z,22.45
2022-07-30T02:27:26.199Z,22.43
2022-07-30T02:28:26.186Z,22.45
2022-07-30T02:29:26.171Z,22.43
2022-07-30T02:30:26.178Z,22.45
2022-07-30T02:31:26.206Z,22.43
2022-07-30T02:32:26.767Z,22.45
2022-07-30T02:33:26.130Z,22.45
2022-07-30T02:34:26.118Z,22.43
2022-07-30T02:35:26.123Z,22.43
2022-07-30T02:36:26.098Z,22.43
2022-07-30T02:37:42.997Z,22.43
2022-07-30T02:38:27.074Z,22.43
2022-07-30T02:39:26.064Z,22.43
2022-07-30T02:40:26.072Z,22.45
2022-07-30T02:41:26.042Z,22.43
2022-07-30T02:42:26.034Z,22.43
2022-07-30T02:43:26.021Z,22.43
2022-07-30T02:44:26.014Z,22.45
2022-07-30T02:45:26.016Z,22.43
2022-07-30T02:46:26.073Z,22.43
2022-07-30T02:47:25.979Z,22.43
2022-07-30T02:48:31.270Z,22.43
2022-07-30T02:49:26.956Z,22.43
2022-07-30T02:50:25.969Z,22.43
2022-07-30T02:51:25.934Z,22.43
2022-07-30T02:52:25.927Z,22.43
2022-07-30T02:53:25.913Z,22.43
2022-07-30T02:54:25.901Z,22.43
2022-07-30T02:55:25.909Z,22.45
2022-07-30T02:56:25.884Z,22.45
2022-07-30T02:57:25.870Z,22.43
2022-07-30T02:58:25.861Z,22.43
2022-07-30T02:59:25.849Z,22.42
2022-07-30T03:00:25.965Z,22.42
2022-07-30T03:01:25.845Z,22.43
2022-07-30T03:02:29.358Z,22.43
2022-07-30T03:03:25.805Z,22.43
2022-07-30T03:04:25.797Z,22.43
2022-07-30T03:05:25.784Z,22.43
2022-07-30T03:06:25.789Z,22.42
2022-07-30T03:07:25.762Z,22.43
2022-07-30T03:08:25.751Z,22.43
2022-07-30T03:09:25.742Z,22.43
2022-07-30T03:10:25.731Z,22.43
2022-07-30T03:11:25.734Z,22.43
2022-07-30T03:12:25.709Z,22.42
2022-07-30T03:13:25.697Z,22.43
2022-07-30T03:14:25.689Z,22.43
2022-07-30T03:15:25.683Z,22.42
2022-07-30T03:16:25.727Z,22.43
2022-07-30T03:17:25.671Z,22.42
2022-07-30T03:18:25.644Z,22.43
2022-07-30T03:19:25.632Z,22.43
2022-07-30T03:20:25.622Z,22.43
2022-07-30T03:21:25.611Z,22.43
2022-07-30T03:22:28.866Z,22.43
2022-07-30T03:23:26.589Z,22.43
2022-07-30T03:24:25.581Z,22.43
2022-07-30T03:25:25.568Z,22.43
2022-07-30T03:26:25.561Z,22.43
2022-07-30T03:27:25.563Z,22.42
2022-07-30T03:28:25.542Z,22.43
2022-07-30T03:29:25.527Z,22.43
2022-07-30T03:30:25.516Z,22.43
2022-07-30T03:31:25.566Z,22.43
2022-07-30T03:32:25.975Z,22.42
2022-07-30T03:33:25.483Z,22.43
2022-07-30T03:34:26.473Z,22.42
2022-07-30T03:35:26.126Z,22.42
2022-07-30T03:36:25.452Z,22.42
2022-07-30T03:37:25.455Z,22.42
2022-07-30T03:38:25.431Z,22.42
2022-07-30T03:39:25.421Z,22.42
2022-07-30T03:40:25.413Z,22.42
2022-07-30T03:41:25.396Z,22.43
2022-07-30T03:42:25.414Z,22.42
2022-07-30T03:43:33.209Z,22.42
2022-07-30T03:44:26.364Z,22.42
2022-07-30T03:45:25.355Z,22.42
2022-07-30T03:46:25.419Z,22.42
2022-07-30T03:47:25.333Z,22.42
2022-07-30T03:48:25.339Z,22.43
2022-07-30T03:49:25.411Z,22.42
2022-07-30T03:50:25.301Z,22.42
2022-07-30T03:51:25.290Z,22.42
2022-07-30T03:52:26.277Z,22.42
2022-07-30T03:53:25.284Z,22.39
2022-07-30T03:54:25.260Z,22.43
2022-07-30T03:55:25.245Z,22.42
2022-07-30T03:56:25.236Z,22.40
2022-07-30T03:57:25.226Z,22.42
2022-07-30T03:58:25.229Z,22.42
2022-07-30T03:59:25.203Z,22.43
2022-07-30T04:00:25.190Z,22.42
2022-07-30T04:01:25.225Z,22.42
2022-07-30T04:02:25.173Z,22.42
2022-07-30T04:03:25.295Z,22.42
2022-07-30T04:04:25.163Z,22.39
2022-07-30T04:05:25.138Z,22.42
2022-07-30T04:06:25.129Z,22.40
2022-07-30T04:07:25.116Z,22.40
2022-07-30T04:08:25.105Z,22.40
2022-07-30T04:09:25.110Z,22.42
2022-07-30T04:10:25.084Z,22.40
2022-07-30T04:11:41.437Z,22.42
2022-07-30T04:12:26.063Z,22.40
2022-07-30T04:13:25.051Z,22.40
2022-07-30T04:14:25.056Z,22.42
2022-07-30T04:16:40.583Z,22.42
2022-07-30T04:16:40.955Z,22.40
2022-07-30T04:17:26.068Z,22.40
2022-07-30T04:18:25.001Z,22.42
2022-07-30T04:19:25.004Z,22.40
2022-07-30T04:20:24.976Z,22.42
2022-07-30T04:21:24.966Z,22.40
2022-07-30T04:22:24.956Z,22.42
2022-07-30T04:23:24.942Z,22.40
2022-07-30T04:24:24.955Z,22.40
2022-07-30T04:25:24.937Z,22.40
2022-07-30T04:26:24.915Z,22.42
2022-07-30T04:27:24.902Z,22.42
2022-07-30T04:28:24.891Z,22.42
2022-07-30T04:29:25.097Z,22.42
2022-07-30T04:30:24.886Z,22.42
2022-07-30T04:31:24.946Z,22.40
2022-07-30T04:32:24.846Z,22.42
2022-07-30T04:33:24.839Z,22.40
2022-07-30T04:34:24.825Z,22.40
2022-07-30T04:35:51.697Z,22.42
2022-07-30T04:36:25.822Z,22.42
2022-07-30T04:37:24.792Z,22.42
2022-07-30T04:38:24.784Z,22.42
2022-07-30T04:39:24.770Z,22.40
2022-07-30T04:40:24.760Z,22.42
2022-07-30T04:41:24.768Z,22.40
2022-07-30T04:42:24.739Z,22.42
2022-07-30T04:43:24.727Z,22.42
2022-07-30T04:44:24.719Z,22.40
2022-07-30T04:45:24.710Z,22.42
2022-07-30T04:46:25.020Z,22.40
2022-07-30T04:47:24.703Z,22.40
2022-07-30T04:48:24.675Z,22.40
2022-07-30T04:49:24.757Z,22.42
2022-07-30T04:50:24.656Z,22.42
2022-07-30T04:51:24.640Z,22.42
2022-07-30T04:52:24.630Z,22.42
2022-07-30T04:53:24.636Z,22.42
2022-07-30T04:54:24.607Z,22.42
2022-07-30T04:55:24.599Z,22.40
2022-07-30T04:56:24.588Z,22.42
2022-07-30T04:57:24.579Z,22.42
2022-07-30T04:58:24.582Z,22.42
2022-07-30T04:59:24.561Z,22.42
2022-07-30T05:00:24.547Z,22.42
2022-07-30T05:01:33.947Z,22.42
2022-07-30T05:02:25.525Z,22.40
2022-07-30T05:03:24.529Z,22.42
2022-07-30T05:04:24.503Z,22.42
2022-07-30T05:05:24.536Z,22.42
2022-07-30T05:06:24.483Z,22.42
2022-07-30T05:07:24.468Z,22.42
2022-07-30T05:08:24.477Z,22.40
2022-07-30T05:09:24.447Z,22.42
2022-07-30T05:10:24.439Z,22.42
2022-07-30T05:11:24.426Z,22.42
2022-07-30T05:12:24.419Z,22.42
2022-07-30T05:13:34.208Z,22.40
2022-07-30T05:14:25.393Z,22.40
2022-07-30T05:15:35.777Z,22.40
2022-07-30T05:16:25.471Z,22.42
2022-07-30T05:17:24.363Z,22.40
2022-07-30T05:18:24.367Z,22.42
2022-07-30T05:19:24.355Z,22.42
2022-07-30T05:20:24.330Z,22.42
2022-07-30T05:21:24.319Z,22.42
2022-07-30T05:22:24.310Z,22.40
2022-07-30T05:23:24.297Z,22.42
2022-07-30T05:24:24.303Z,22.40
2022-07-30T05:25:24.276Z,22.40
2022-07-30T05:26:27.896Z,22.40
2022-07-30T05:27:24.257Z,22.40
2022-07-30T05:28:24.245Z,22.42
2022-07-30T05:29:24.253Z,22.40
2022-07-30T05:30:27.643Z,22.42
2022-07-30T05:31:24.290Z,22.40
2022-07-30T05:32:25.712Z,22.40
2022-07-30T05:33:24.190Z,22.42
2022-07-30T05:34:25.181Z,22.42
2022-07-30T05:35:24.169Z,22.42
2022-07-30T05:36:24.178Z,22.43
2022-07-30T05:37:24.148Z,22.43
2022-07-30T05:38:24.610Z,22.40
2022-07-30T05:39:24.126Z,22.42
2022-07-30T05:40:24.116Z,22.42
2022-07-30T05:41:32.250Z,22.42
2022-07-30T05:42:25.097Z,22.42
2022-07-30T05:43:24.085Z,22.43
2022-07-30T05:44:24.343Z,22.42
2022-07-30T05:45:24.063Z,22.42
2022-07-30T05:46:24.137Z,22.43
2022-07-30T05:47:24.042Z,22.42
2022-07-30T05:48:24.032Z,22.43
2022-07-30T05:49:24.081Z,22.42
2022-07-30T05:50:24.012Z,22.43
2022-07-30T05:51:24.015Z,22.42
2022-07-30T05:52:23.992Z,22.42
2022-07-30T05:53:23.978Z,22.43
2022-07-30T05:54:24.684Z,22.43
2022-07-30T05:55:23.955Z,22.43
2022-07-30T05:56:23.948Z,22.43
2022-07-30T05:57:23.952Z,22.42
2022-07-30T05:58:23.925Z,22.43
2022-07-30T05:59:23.913Z,22.43
2022-07-30T06:00:23.905Z,22.42
2022-07-30T06:01:23.938Z,22.42
2022-07-30T06:02:24.619Z,22.43
2022-07-30T06:03:23.868Z,22.43
2022-07-30T06:04:23.896Z,22.42
2022-07-30T06:05:23.849Z,22.42
2022-07-30T06:06:23.839Z,22.42
2022-07-30T06:07:23.841Z,22.42
2022-07-30T06:08:23.817Z,22.42
2022-07-30T06:09:28.537Z,22.43
2022-07-30T06:10:24.794Z,22.42
2022-07-30T06:11:23.783Z,22.42
2022-07-30T06:12:23.790Z,22.42
2022-07-30T06:13:23.763Z,22.42
2022-07-30T06:14:23.751Z,22.42
2022-07-30T06:15:25.671Z,22.42
2022-07-30T06:16:23.777Z,22.42
2022-07-30T06:17:23.742Z,22.42
2022-07-30T06:18:23.708Z,22.43
2022-07-30T06:19:23.700Z,22.42
2022-07-30T06:20:23.685Z,22.42
2022-07-30T06:21:23.678Z,22.42
2022-07-30T06:22:26.129Z,22.42
2022-07-30T06:23:23.658Z,22.42
2022-07-30T06:24:23.644Z,22.42
2022-07-30T06:25:24.633Z,22.42
2022-07-30T06:26:23.623Z,22.42
2022-07-30T06:27:23.629Z,22.42
2022-07-30T06:28:39.638Z,22.40
2022-07-30T06:29:24.592Z,22.42
2022-07-30T06:30:30.500Z,22.43
2022-07-30T06:31:24.639Z,22.42
2022-07-30T06:32:23.558Z,22.42
2022-07-30T06:33:23.565Z,22.42
2022-07-30T06:34:23.538Z,22.43
2022-07-30T06:35:23.528Z,22.42
2022-07-30T06:36:23.516Z,22.42
2022-07-30T06:37:23.575Z,22.42
2022-07-30T06:38:24.510Z,22.40
2022-07-30T06:39:56.251Z,22.42
2022-07-30T06:40:24.471Z,22.42
2022-07-30T06:41:23.466Z,22.42
2022-07-30T06:42:23.545Z,22.42
2022-07-30T06:43:23.456Z,22.43
2022-07-30T06:44:23.440Z,22.40
2022-07-30T06:45:23.417Z,22.43
2022-07-30T06:46:23.502Z,22.43
2022-07-30T06:47:23.580Z,22.42
2022-07-30T06:48:23.404Z,22.42
2022-07-30T06:49:23.432Z,22.42
2022-07-30T06:50:23.366Z,22.42
2022-07-30T06:51:23.357Z,22.43
2022-07-30T06:52:23.594Z,22.42
2022-07-30T06:53:23.354Z,22.43
2022-07-30T06:54:23.321Z,22.42
2022-07-30T06:55:23.310Z,22.43
2022-07-30T06:56:23.301Z,22.43
2022-07-30T06:57:23.509Z,22.43
2022-07-30T06:58:25.483Z,22.43
2022-07-30T06:59:23.284Z,22.42
2022-07-30T07:00:23.255Z,22.42
2022-07-30T07:01:23.292Z,22.43
2022-07-30T07:02:23.566Z,22.43
2022-07-30T07:03:23.225Z,22.42
2022-07-30T07:04:23.306Z,22.42
2022-07-30T07:05:23.202Z,22.43
2022-07-30T07:06:23.193Z,22.42
2022-07-30T07:07:40.895Z,22.42
2022-07-30T07:08:25.286Z,22.42
2022-07-30T07:09:23.177Z,22.43
2022-07-30T07:10:23.153Z,22.42
2022-07-30T07:11:23.140Z,22.43
2022-07-30T07:12:23.131Z,22.42
2022-07-30T07:13:23.116Z,22.42
2022-07-30T07:14:23.122Z,22.43
2022-07-30T07:15:32.852Z,22.43
2022-07-30T07:16:24.136Z,22.42
2022-07-30T07:17:23.131Z,22.42
2022-07-30T07:18:23.064Z,22.42
2022-07-30T07:20:01.195Z,22.42
2022-07-30T07:20:24.099Z,22.43
2022-07-30T07:21:23.031Z,22.42
2022-07-30T07:22:23.024Z,22.42
2022-07-30T07:23:23.011Z,22.42
2022-07-30T07:24:23.018Z,22.42
2022-07-30T07:25:23.006Z,22.43
2022-07-30T07:26:22.983Z,22.42
2022-07-30T07:27:22.969Z,22.43
2022-07-30T07:28:22.959Z,22.42
2022-07-30T07:29:23.945Z,22.42
2022-07-30T07:30:22.951Z,22.42
2022-07-30T07:32:06.327Z,22.42
2022-07-30T07:32:23.915Z,22.42
2022-07-30T07:33:22.904Z,22.43
2022-07-30T07:34:22.898Z,22.43
2022-07-30T07:35:22.900Z,22.43
2022-07-30T07:36:22.872Z,22.42
2022-07-30T07:37:22.859Z,22.43
2022-07-30T07:38:22.850Z,22.43
2022-07-30T07:39:22.839Z,22.43
2022-07-30T07:40:22.850Z,22.43
2022-07-30T07:41:22.817Z,22.43
2022-07-30T07:42:22.806Z,22.42
2022-07-30T07:43:22.795Z,22.42
2022-07-30T07:44:22.787Z,22.42
2022-07-30T07:45:22.789Z,22.42
2022-07-30T07:46:33.925Z,22.43
2022-07-30T07:47:23.752Z,22.42
2022-07-30T07:48:22.746Z,22.43
2022-07-30T07:49:22.777Z,22.42
2022-07-30T07:50:22.741Z,22.43
2022-07-30T07:51:34.790Z,22.40
2022-07-30T07:52:23.700Z,22.43
2022-07-30T07:53:22.688Z,22.43
2022-07-30T07:54:23.359Z,22.42
2022-07-30T07:55:22.682Z,22.43
2022-07-30T07:56:22.655Z,22.42
2022-07-30T07:57:22.644Z,22.42
2022-07-30T07:58:26.236Z,22.43
2022-07-30T07:59:22.623Z,22.42
2022-07-30T08:00:22.629Z,22.43
2022-07-30T08:01:22.664Z,22.42
2022-07-30T08:02:22.631Z,22.43
2022-07-30T08:03:22.579Z,22.43
2022-07-30T08:04:22.572Z,22.43
2022-07-30T08:05:22.560Z,22.43
2022-07-30T08:06:22.566Z,22.43
2022-07-30T08:07:22.538Z,22.43
2022-07-30T08:08:22.526Z,22.43
2022-07-30T08:09:22.519Z,22.42
2022-07-30T08:10:22.584Z,22.43
2022-07-30T08:11:22.510Z,22.45
2022-07-30T08:12:22.500Z,22.45
2022-07-30T08:13:51.975Z,22.43
2022-07-30T08:14:23.459Z,22.45
2022-07-30T08:15:22.452Z,22.43
2022-07-30T08:16:22.490Z,22.45
2022-07-30T08:17:22.580Z,22.45
2022-07-30T08:18:22.420Z,22.45
2022-07-30T08:19:22.409Z,22.45
2022-07-30T08:20:22.547Z,22.45
2022-07-30T08:21:22.385Z,22.43
2022-07-30T08:22:22.395Z,22.46
2022-07-30T08:23:22.375Z,22.45
2022-07-30T08:24:22.356Z,22.45
2022-07-30T08:25:24.470Z,22.45
2022-07-30T08:26:22.333Z,22.45
2022-07-30T08:27:22.336Z,22.46
2022-07-30T08:28:35.775Z,22.45
2022-07-30T08:29:23.300Z,22.43
2022-07-30T08:30:22.485Z,22.45
2022-07-30T08:31:22.289Z,22.46
2022-07-30T08:32:22.285Z,22.45
2022-07-30T08:33:22.274Z,22.45
2022-07-30T08:34:25.610Z,22.45
2022-07-30T08:35:22.236Z,22.45
2022-07-30T08:36:25.784Z,22.45
2022-07-30T08:37:22.213Z,22.45
2022-07-30T08:38:22.223Z,22.45
2022-07-30T08:39:22.191Z,22.45
2022-07-30T08:40:22.182Z,22.45
2022-07-30T08:41:22.171Z,22.45
2022-07-30T08:42:22.162Z,22.46
2022-07-30T08:43:22.163Z,22.46
2022-07-30T08:44:22.143Z,22.45
2022-07-30T08:45:22.127Z,22.46
2022-07-30T08:46:23.117Z,22.46
2022-07-30T08:47:22.105Z,22.45
2022-07-30T08:48:22.114Z,22.45
2022-07-30T08:49:22.083Z,22.45
2022-07-30T08:50:22.073Z,22.46
2022-07-30T08:51:22.061Z,22.45
2022-07-30T08:52:22.051Z,22.46
2022-07-30T08:53:22.056Z,22.45
2022-07-30T08:54:22.032Z,22.46
2022-07-30T08:55:22.018Z,22.45
2022-07-30T08:56:22.007Z,22.45
2022-07-30T08:57:21.998Z,22.47
2022-07-30T08:58:22.006Z,22.46
2022-07-30T08:59:21.989Z,22.46
2022-07-30T09:00:21.968Z,22.46
2022-07-30T09:01:21.955Z,22.46
2022-07-30T09:02:27.431Z,22.46
2022-07-30T09:03:22.932Z,22.46
2022-07-30T09:04:21.944Z,22.46
2022-07-30T09:05:21.910Z,22.46
2022-07-30T09:06:21.902Z,22.46
2022-07-30T09:07:21.891Z,22.46
2022-07-30T09:08:21.880Z,22.46
2022-07-30T09:09:21.884Z,22.46
2022-07-30T09:10:21.855Z,22.46
2022-07-30T09:11:21.846Z,22.46
2022-07-30T09:12:21.835Z,22.46
2022-07-30T09:13:21.823Z,22.46
2022-07-30T09:14:21.836Z,22.46
2022-07-30T09:15:22.802Z,22.46
2022-07-30T09:16:21.797Z,22.47
2022-07-30T09:17:21.781Z,22.45
2022-07-30T09:18:21.773Z,22.46
2022-07-30T09:19:21.780Z,22.46
2022-07-30T09:20:21.752Z,22.46
2022-07-30T09:21:21.736Z,22.47
2022-07-30T09:22:21.726Z,22.46
2022-07-30T09:23:21.715Z,22.46
2022-07-30T09:24:21.723Z,22.47
2022-07-30T09:25:21.694Z,22.47
2022-07-30T09:26:21.687Z,22.46
2022-07-30T09:27:21.675Z,22.46
2022-07-30T09:28:21.665Z,22.46
2022-07-30T09:29:21.679Z,22.46
2022-07-30T09:30:21.644Z,22.46
2022-07-30T09:31:21.685Z,22.46
2022-07-30T09:32:21.620Z,22.46
2022-07-30T09:33:21.607Z,22.47
2022-07-30T09:34:21.597Z,22.47
2022-07-30T09:35:21.603Z,22.46
2022-07-30T09:36:21.578Z,22.47
2022-07-30T09:37:21.564Z,22.46
2022-07-30T09:38:21.556Z,22.47
2022-07-30T09:39:21.543Z,22.47
2022-07-30T09:40:21.548Z,22.47
2022-07-30T09:41:38.154Z,22.46
2022-07-30T09:42:22.511Z,22.46
2022-07-30T09:43:25.949Z,22.46
2022-07-30T09:44:22.493Z,22.46
2022-07-30T09:45:21.494Z,22.47
2022-07-30T09:46:21.470Z,22.46
2022-07-30T09:47:21.459Z,22.47
2022-07-30T09:48:21.449Z,22.47
2022-07-30T09:49:21.519Z,22.46
2022-07-30T09:50:31.699Z,22.47
2022-07-30T09:51:24.108Z,22.46
2022-07-30T09:52:28.977Z,22.46
2022-07-30T09:53:22.399Z,22.47
2022-07-30T09:54:21.382Z,22.47
2022-07-30T09:55:21.370Z,22.47
2022-07-30T09:56:21.378Z,22.46
2022-07-30T09:57:26.352Z,22.47
2022-07-30T09:58:27.417Z,22.47
2022-07-30T09:59:22.327Z,22.47
2022-07-30T10:00:23.814Z,22.46
2022-07-30T10:01:21.329Z,22.47
2022-07-30T10:02:21.312Z,22.49
2022-07-30T10:03:33.508Z,22.47
2022-07-30T10:04:22.274Z,22.47
2022-07-30T10:05:21.262Z,22.46
2022-07-30T10:06:21.253Z,22.46
2022-07-30T10:07:25.175Z,22.47
2022-07-30T10:08:21.249Z,22.46
2022-07-30T10:09:21.222Z,22.47
2022-07-30T10:10:21.217Z,22.46
2022-07-30T10:11:23.589Z,22.46
2022-07-30T10:12:23.943Z,22.46
2022-07-30T10:13:21.228Z,22.49
2022-07-30T10:14:24.052Z,22.47
2022-07-30T10:15:22.159Z,22.47
2022-07-30T10:16:21.148Z,22.47
2022-07-30T10:17:21.134Z,22.49
2022-07-30T10:18:21.127Z,22.47
2022-07-30T10:19:23.403Z,22.47
2022-07-30T10:20:22.116Z,22.47
2022-07-30T10:21:21.092Z,22.47
2022-07-30T10:22:21.083Z,22.47
2022-07-30T10:23:27.144Z,22.47
2022-07-30T10:24:27.551Z,22.47
2022-07-30T10:25:23.244Z,22.46
2022-07-30T10:26:22.037Z,22.47
2022-07-30T10:27:21.034Z,22.47
2022-07-30T10:28:21.016Z,22.47
2022-07-30T10:29:21.022Z,22.47
2022-07-30T10:30:22.010Z,22.47
2022-07-30T10:31:48.308Z,22.47
2022-07-30T10:32:30.761Z,22.47
2022-07-30T10:33:34.508Z,22.47
2022-07-30T10:34:23.976Z,22.47
2022-07-30T10:35:34.169Z,22.46
2022-07-30T10:36:24.444Z,22.47
2022-07-30T10:37:20.925Z,22.47
2022-07-30T10:38:20.908Z,22.47
2022-07-30T10:39:20.898Z,22.49
2022-07-30T10:40:23.067Z,22.47
2022-07-30T10:41:22.205Z,22.47
2022-07-30T10:42:21.863Z,22.49
2022-07-30T10:43:20.859Z,22.49
2022-07-30T10:44:20.881Z,22.47
2022-07-30T10:45:20.837Z,22.49
2022-07-30T10:46:23.039Z,22.51
2022-07-30T10:47:20.823Z,22.49
2022-07-30T10:48:20.802Z,22.49
2022-07-30T10:49:20.891Z,22.47
2022-07-30T10:50:22.214Z,22.47
2022-07-30T10:51:34.493Z,22.47
2022-07-30T10:52:21.759Z,22.49
2022-07-30T10:53:20.752Z,22.49
2022-07-30T10:54:20.740Z,22.47
2022-07-30T10:55:20.730Z,22.47
2022-07-30T10:56:25.469Z,22.49
2022-07-30T10:57:22.531Z,22.49
2022-07-30T10:58:23.003Z,22.49
2022-07-30T10:59:20.688Z,22.49
2022-07-30T11:00:20.677Z,22.51
2022-07-30T11:01:20.683Z,22.49
2022-07-30T11:02:20.655Z,22.49
2022-07-30T11:03:20.652Z,22.49
2022-07-30T11:04:20.689Z,22.49
2022-07-30T11:05:27.134Z,22.49
2022-07-30T11:06:24.395Z,22.51
2022-07-30T11:07:20.621Z,22.51
2022-07-30T11:08:20.595Z,22.51
2022-07-30T11:09:21.583Z,22.51
2022-07-30T11:10:20.571Z,22.51
2022-07-30T11:11:20.609Z,22.51
2022-07-30T11:12:20.960Z,22.52
2022-07-30T11:13:24.988Z,22.51
2022-07-30T11:14:20.679Z,22.51
2022-07-30T11:15:20.517Z,22.49
2022-07-30T11:16:20.507Z,22.51
2022-07-30T11:17:20.515Z,22.52
2022-07-30T11:18:20.485Z,22.51
2022-07-30T11:19:55.707Z,22.51
2022-07-30T11:20:21.465Z,22.51
2022-07-30T11:21:20.767Z,22.51
2022-07-30T11:22:20.459Z,22.51
2022-07-30T11:23:20.433Z,22.52
2022-07-30T11:24:20.421Z,22.52
2022-07-30T11:25:20.413Z,22.51
2022-07-30T11:26:20.402Z,22.52
2022-07-30T11:27:20.409Z,22.51
2022-07-30T11:28:20.397Z,22.52
2022-07-30T11:29:20.370Z,22.52
2022-07-30T11:30:23.436Z,22.52
2022-07-30T11:31:20.351Z,22.52
2022-07-30T11:32:21.336Z,22.52
2022-07-30T11:33:20.343Z,22.52
2022-07-30T11:34:20.322Z,22.54
2022-07-30T11:35:23.094Z,22.54
2022-07-30T11:36:20.295Z,22.54
2022-07-30T11:37:22.281Z,22.52
2022-07-30T11:38:22.471Z,22.55
2022-07-30T11:39:20.263Z,22.54
2022-07-30T11:40:26.173Z,22.54
2022-07-30T11:41:21.248Z,22.55
2022-07-30T11:42:20.231Z,22.54
2022-07-30T11:43:20.341Z,22.55
2022-07-30T11:44:21.227Z,22.54
2022-07-30T11:45:20.199Z,22.54
2022-07-30T11:46:29.687Z,22.55
2022-07-30T11:47:21.179Z,22.55
2022-07-30T11:48:20.168Z,22.54
2022-07-30T11:49:20.249Z,22.57
2022-07-30T11:50:20.145Z,22.55
2022-07-30T11:51:20.135Z,22.55
2022-07-30T11:52:20.125Z,22.55
2022-07-30T11:53:20.113Z,22.55
2022-07-30T11:54:20.105Z,22.57
2022-07-30T11:55:20.111Z,22.55
2022-07-30T11:56:20.082Z,22.57
2022-07-30T11:57:20.071Z,22.55
2022-07-30T11:58:20.060Z,22.57
2022-07-30T11:59:20.050Z,22.55
2022-07-30T12:00:20.055Z,22.58
2022-07-30T12:01:20.031Z,22.58
2022-07-30T12:02:20.020Z,22.57
2022-07-30T12:03:20.008Z,22.55
2022-07-30T12:04:19.998Z,22.57
2022-07-30T12:05:20.002Z,22.57
2022-07-30T12:06:20.060Z,22.57
2022-07-30T12:07:19.967Z,22.58
2022-07-30T12:08:35.469Z,22.57
2022-07-30T12:09:20.971Z,22.58
2022-07-30T12:10:27.107Z,22.57
2022-07-30T12:11:20.922Z,22.57
2022-07-30T12:12:19.910Z,22.57
2022-07-30T12:13:19.902Z,22.58
2022-07-30T12:14:19.889Z,22.58
2022-07-30T12:15:19.896Z,22.58
2022-07-30T12:16:19.868Z,22.58
2022-07-30T12:17:19.859Z,22.57
2022-07-30T12:18:27.248Z,22.58
2022-07-30T12:19:20.837Z,22.58
2022-07-30T12:20:19.841Z,22.58
2022-07-30T12:21:19.839Z,22.57
2022-07-30T12:22:19.807Z,22.58
2022-07-30T12:23:21.915Z,22.60
2022-07-30T12:24:19.782Z,22.58
2022-07-30T12:25:19.772Z,22.58
2022-07-30T12:26:19.775Z,22.58
2022-07-30T12:27:19.752Z,22.58
2022-07-30T12:28:19.739Z,22.58
2022-07-30T12:29:19.729Z,22.58
2022-07-30T12:30:19.721Z,22.60
2022-07-30T12:31:19.726Z,22.58
2022-07-30T12:32:19.696Z,22.58
2022-07-30T12:33:19.689Z,22.60
2022-07-30T12:34:19.677Z,22.58
2022-07-30T12:35:19.666Z,22.60
2022-07-30T12:36:19.668Z,22.58
2022-07-30T12:37:19.645Z,22.60
2022-07-30T12:38:19.632Z,22.58
2022-07-30T12:39:19.622Z,22.58
2022-07-30T12:40:19.610Z,22.60
2022-07-30T12:41:19.618Z,22.60
2022-07-30T12:42:19.606Z,22.60
2022-07-30T12:43:19.580Z,22.60
2022-07-30T12:44:19.568Z,22.61
2022-07-30T12:45:19.559Z,22.58
2022-07-30T12:46:19.546Z,22.61
2022-07-30T12:47:19.554Z,22.60
2022-07-30T12:48:19.526Z,22.60
2022-07-30T12:49:22.148Z,22.60
2022-07-30T12:50:19.503Z,22.60
2022-07-30T12:51:19.494Z,22.60
2022-07-30T12:52:27.569Z,22.62